Time;durP1;ratioP1;P1;durP2;ratioP2;P2;SDS_P1;SDS_P2;PMS_P1;PMS_P2;Temp;Humidity;BMP_temperature;BMP_pressure;BME280_temperature;BME280_humidity;BME280_pressure;Samples;Min_cycle;Max_cycle;Signal;HPM_P1;HPM_P2
2022/07/02 00:01:08;;;;;;;;;;;12.00;99.90;;;;;;5077485;28;19908;-69
2022/07/02 00:03:38;;;;;;;;;;;12.00;99.90;;;;;;5077170;28;19905;-69
2022/07/02 00:06:04;;;;;;;;;;;12.00;99.90;;;;;;5077182;28;19905;-69
2022/07/02 00:08:30;;;;;;;;;;;12.00;99.90;;;;;;5076977;28;19912;-69
2022/07/02 00:10:57;;;;;;;;;;;12.10;99.90;;;;;;5077126;28;20369;-70
2022/07/02 00:13:24;;;;;;;;;;;12.20;99.90;;;;;;5077589;28;19910;-69
2022/07/02 00:15:49;;;;;;;;;;;12.20;99.90;;;;;;5076966;28;19995;-69
2022/07/02 00:18:16;;;;;;;;;;;12.10;99.90;;;;;;5076828;28;20017;-69
2022/07/02 00:20:42;;;;;;;;;;;12.10;99.90;;;;;;5076864;28;19912;-69
2022/07/02 00:23:08;;;;;;;;;;;12.10;99.90;;;;;;5077098;28;19930;-69
2022/07/02 00:25:38;;;;;;;;;;;12.10;99.90;;;;;;5077351;28;20010;-69
2022/07/02 00:28:08;;;;;;;;;;;12.10;99.90;;;;;;5076632;28;19911;-69
2022/07/02 00:30:33;;;;;;;;;;;12.10;99.90;;;;;;5076626;28;20341;-69
2022/07/02 00:33:00;;;;;;;;;;;12.10;99.90;;;;;;5076620;28;19905;-69
2022/07/02 00:35:26;;;;;;;;;;;12.10;99.90;;;;;;5075389;28;19904;-69
2022/07/02 00:37:52;;;;;;;;;;;12.20;99.90;;;;;;5076541;28;19929;-69
2022/07/02 00:40:18;;;;;;;;;;;12.20;99.90;;;;;;5075310;28;19949;-69
2022/07/02 00:42:44;;;;;;;;;;;12.20;99.90;;;;;;5076463;28;19904;-69
2022/07/02 00:45:09;;;;;;;;;;;12.20;99.90;;;;;;5076425;28;19911;-69
2022/07/02 00:47:36;;;;;;;;;;;12.20;99.90;;;;;;5076296;28;19905;-69
2022/07/02 00:50:06;;;;;;;;;;;12.20;99.90;;;;;;5074981;28;19908;-69
2022/07/02 00:52:31;;;;;;;;;;;12.20;99.90;;;;;;5076505;28;19983;-69
2022/07/02 00:54:57;;;;;;;;;;;12.10;99.90;;;;;;5076955;28;20297;-69
2022/07/02 00:57:23;;;;;;;;;;;12.00;99.90;;;;;;5076169;28;19909;-69
2022/07/02 00:59:48;;;;;;;;;;;12.00;99.90;;;;;;5076724;28;19908;-69
2022/07/02 01:02:14;;;;;;;;;;;12.00;99.90;;;;;;5075484;28;19998;-69
2022/07/02 01:04:40;;;;;;;;;;;12.00;99.90;;;;;;5065047;28;20357;-69
2022/07/02 01:07:07;;;;;;;;;;;12.00;99.90;;;;;;5075283;28;19987;-69
2022/07/02 01:12:22;;;;;;;;;;;12.00;99.90;;;;;;5074583;28;19951;-69
2022/07/02 01:14:48;;;;;;;;;;;12.10;99.90;;;;;;5075573;28;19904;-69
2022/07/02 01:17:14;;;;;;;;;;;12.00;99.90;;;;;;5075207;28;19999;-69
2022/07/02 01:19:39;;;;;;;;;;;12.00;99.90;;;;;;5075261;28;19905;-69
2022/07/02 01:22:12;;;;;;;;;;;12.00;99.90;;;;;;5075190;28;19912;-69
2022/07/02 01:24:38;;;;;;;;;;;11.90;99.90;;;;;;5072704;28;19905;-68
2022/07/02 01:27:03;;;;;;;;;;;11.90;99.90;;;;;;5073761;28;19911;-69
2022/07/02 01:29:29;;;;;;;;;;;11.90;99.90;;;;;;5075026;28;20261;-69
2022/07/02 01:31:54;;;;;;;;;;;11.90;99.90;;;;;;5074792;28;19916;-69
2022/07/02 01:34:20;;;;;;;;;;;11.80;99.90;;;;;;5074951;28;19904;-69
2022/07/02 01:36:46;;;;;;;;;;;11.80;99.90;;;;;;5075098;28;19905;-69
2022/07/02 01:39:11;;;;;;;;;;;11.90;99.90;;;;;;5075348;28;19999;-69
2022/07/02 01:41:40;;;;;;;;;;;11.90;99.90;;;;;;5075557;28;19904;-69
2022/07/02 01:44:08;;;;;;;;;;;12.00;99.90;;;;;;5075328;28;19912;-69
2022/07/02 01:46:34;;;;;;;;;;;12.00;99.90;;;;;;5075264;28;20349;-69
2022/07/02 01:49:00;;;;;;;;;;;12.00;99.90;;;;;;5075114;28;19904;-69
2022/07/02 01:51:25;;;;;;;;;;;12.10;99.90;;;;;;5075507;28;19909;-69
2022/07/02 01:53:51;;;;;;;;;;;12.10;99.90;;;;;;5075400;28;20348;-69
2022/07/02 01:56:17;;;;;;;;;;;12.10;99.90;;;;;;5075291;28;19912;-69
2022/07/02 01:58:43;;;;;;;;;;;12.10;99.90;;;;;;5074930;28;19904;-69
2022/07/02 02:01:09;;;;;;;;;;;12.20;99.90;;;;;;5074915;28;20318;-69
2022/07/02 02:03:34;;;;;;;;;;;12.10;99.90;;;;;;5074873;28;19911;-69
2022/07/02 02:06:00;;;;;;;;;;;12.20;99.90;;;;;;5074774;28;20419;-69
2022/07/02 02:08:25;;;;;;;;;;;12.20;99.90;;;;;;5073383;28;19916;-69
2022/07/02 02:10:51;;;;;;;;;;;12.20;99.90;;;;;;5074633;28;19908;-69
2022/07/02 02:13:17;;;;;;;;;;;12.20;99.90;;;;;;5073805;28;19905;-69
2022/07/02 02:15:42;;;;;;;;;;;12.10;99.90;;;;;;5074529;28;19999;-69
2022/07/02 02:18:08;;;;;;;;;;;12.00;99.90;;;;;;5074778;28;19909;-68
2022/07/02 02:20:34;;;;;;;;;;;12.00;99.90;;;;;;5074801;28;19911;-69
2022/07/02 02:23:01;;;;;;;;;;;11.90;99.90;;;;;;5074513;28;19911;-69
2022/07/02 02:25:26;;;;;;;;;;;11.90;99.90;;;;;;5074499;28;20004;-69
2022/07/02 02:27:52;;;;;;;;;;;11.80;99.90;;;;;;5074629;28;19944;-69
2022/07/02 02:30:18;;;;;;;;;;;11.80;99.90;;;;;;5074312;28;20090;-69
2022/07/02 02:32:43;;;;;;;;;;;11.90;99.90;;;;;;5074370;28;19904;-69
2022/07/02 02:35:09;;;;;;;;;;;11.90;99.90;;;;;;5074312;28;20342;-69
2022/07/02 02:37:34;;;;;;;;;;;11.90;99.90;;;;;;5074229;28;19904;-69
2022/07/02 02:40:00;;;;;;;;;;;11.90;99.90;;;;;;5074211;28;20387;-69
2022/07/02 02:42:25;;;;;;;;;;;11.90;99.90;;;;;;5074212;28;20330;-68
2022/07/02 02:44:51;;;;;;;;;;;11.90;99.90;;;;;;5074146;28;20280;-69
2022/07/02 02:47:17;;;;;;;;;;;11.90;99.90;;;;;;5073067;28;20280;-68
2022/07/02 02:49:43;;;;;;;;;;;11.90;99.90;;;;;;5074270;28;19904;-69
2022/07/02 02:52:08;;;;;;;;;;;12.00;99.90;;;;;;5074589;28;19916;-69
2022/07/02 02:54:34;;;;;;;;;;;12.00;99.90;;;;;;5074355;28;20004;-69
2022/07/02 02:56:59;;;;;;;;;;;11.90;99.90;;;;;;5073882;28;19951;-69
2022/07/02 02:59:25;;;;;;;;;;;11.90;99.90;;;;;;5074192;28;20049;-69
2022/07/02 03:01:50;;;;;;;;;;;11.80;99.90;;;;;;5072679;28;19944;-69
2022/07/02 03:04:16;;;;;;;;;;;11.80;99.90;;;;;;5073873;28;20370;-69
2022/07/02 03:06:41;;;;;;;;;;;11.80;99.90;;;;;;5073754;28;19970;-68
2022/07/02 03:09:07;;;;;;;;;;;11.80;99.90;;;;;;5072533;28;20326;-69
2022/07/02 03:11:32;;;;;;;;;;;11.70;99.90;;;;;;5073772;28;19915;-69
2022/07/02 03:13:58;;;;;;;;;;;11.70;99.90;;;;;;5074176;28;19909;-69
2022/07/02 03:16:24;;;;;;;;;;;11.70;99.90;;;;;;5074409;28;19905;-69
2022/07/02 03:18:49;;;;;;;;;;;11.60;99.90;;;;;;5073749;28;19928;-69
2022/07/02 03:21:15;;;;;;;;;;;11.50;99.90;;;;;;5073829;28;19904;-69
2022/07/02 03:23:40;;;;;;;;;;;11.50;99.90;;;;;;5073342;28;19943;-69
2022/07/02 03:26:06;;;;;;;;;;;11.40;99.90;;;;;;5074009;28;19911;-69
2022/07/02 03:28:31;;;;;;;;;;;11.40;99.90;;;;;;5073619;28;19904;-69
2022/07/02 03:30:57;;;;;;;;;;;11.40;99.90;;;;;;5074156;28;19908;-70
2022/07/02 03:33:22;;;;;;;;;;;11.40;99.90;;;;;;5073657;28;19905;-70
2022/07/02 03:35:48;;;;;;;;;;;11.40;99.90;;;;;;5073894;28;20283;-69
2022/07/02 03:38:14;;;;;;;;;;;11.40;99.90;;;;;;5073542;28;19958;-69
2022/07/02 03:40:39;;;;;;;;;;;11.40;99.90;;;;;;5073833;28;19905;-69
2022/07/02 03:43:05;;;;;;;;;;;11.40;99.90;;;;;;5073539;28;19904;-69
2022/07/02 03:45:30;;;;;;;;;;;11.40;99.90;;;;;;5073515;28;19904;-69
2022/07/02 03:47:56;;;;;;;;;;;11.40;99.90;;;;;;5073465;28;19908;-69
2022/07/02 03:50:21;;;;;;;;;;;11.40;99.90;;;;;;5073381;28;20007;-69
2022/07/02 03:52:47;;;;;;;;;;;11.30;99.90;;;;;;5073762;28;19911;-69
2022/07/02 03:55:13;;;;;;;;;;;11.40;99.90;;;;;;5073735;28;19904;-69
2022/07/02 03:57:38;;;;;;;;;;;11.40;99.90;;;;;;5073655;28;20366;-69
2022/07/02 04:00:05;;;;;;;;;;;11.40;99.90;;;;;;5073411;28;19958;-69
2022/07/02 04:02:30;;;;;;;;;;;11.40;99.90;;;;;;5072113;28;19904;-69
2022/07/02 04:04:56;;;;;;;;;;;11.40;99.90;;;;;;5073316;28;19911;-69
2022/07/02 04:07:21;;;;;;;;;;;11.40;99.90;;;;;;5073159;28;19909;-69
2022/07/02 04:09:47;;;;;;;;;;;11.40;99.90;;;;;;5073566;28;19905;-69
2022/07/02 04:12:12;;;;;;;;;;;11.40;99.90;;;;;;5073549;28;19904;-69
2022/07/02 04:14:38;;;;;;;;;;;11.30;99.90;;;;;;5073259;28;20261;-69
2022/07/02 04:17:05;;;;;;;;;;;11.40;99.90;;;;;;5073122;28;19904;-69
2022/07/02 04:19:30;;;;;;;;;;;11.30;99.90;;;;;;5073163;28;20373;-69
2022/07/02 04:21:56;;;;;;;;;;;11.30;99.90;;;;;;5073675;28;19912;-68
2022/07/02 04:24:21;;;;;;;;;;;11.30;99.90;;;;;;5071890;28;20307;-68
2022/07/02 04:26:47;;;;;;;;;;;11.30;99.90;;;;;;5073296;28;19904;-68
2022/07/02 04:29:12;;;;;;;;;;;11.40;99.90;;;;;;5073089;28;19904;-68
2022/07/02 04:31:38;;;;;;;;;;;11.40;99.90;;;;;;5072996;28;19912;-68
2022/07/02 04:34:03;;;;;;;;;;;11.40;99.90;;;;;;5073031;28;19908;-68
2022/07/02 04:36:29;;;;;;;;;;;11.40;99.90;;;;;;5074702;28;19958;-68
2022/07/02 04:38:54;;;;;;;;;;;11.50;99.90;;;;;;5076527;28;19912;-68
2022/07/02 04:41:20;;;;;;;;;;;11.50;99.90;;;;;;5076770;28;19904;-68
2022/07/02 04:43:46;;;;;;;;;;;11.50;99.90;;;;;;5076453;28;19905;-68
2022/07/02 04:46:11;;;;;;;;;;;11.60;99.90;;;;;;5077014;28;19904;-68
2022/07/02 04:48:37;;;;;;;;;;;11.60;99.90;;;;;;5076314;28;19998;-68
2022/07/02 04:51:02;;;;;;;;;;;11.70;99.90;;;;;;5076284;28;19908;-68
2022/07/02 04:53:28;;;;;;;;;;;11.70;99.90;;;;;;5076317;28;20402;-68
2022/07/02 04:55:53;;;;;;;;;;;11.70;99.90;;;;;;5076267;28;19908;-68
2022/07/02 04:58:19;;;;;;;;;;;11.80;99.90;;;;;;5076181;28;19950;-68
2022/07/02 05:00:44;;;;;;;;;;;11.80;99.90;;;;;;5076455;28;19904;-68
2022/07/02 05:03:10;;;;;;;;;;;11.90;99.90;;;;;;5074874;28;19904;-68
2022/07/02 05:05:35;;;;;;;;;;;11.90;99.90;;;;;;5076081;28;19970;-68
2022/07/02 05:08:01;;;;;;;;;;;12.00;99.90;;;;;;5075855;28;20425;-68
2022/07/02 05:10:26;;;;;;;;;;;12.00;99.90;;;;;;5076176;28;19954;-68
2022/07/02 05:12:52;;;;;;;;;;;12.10;99.90;;;;;;5075975;28;19904;-67
2022/07/02 05:15:17;;;;;;;;;;;12.10;99.90;;;;;;5075922;28;19904;-70
2022/07/02 05:17:44;;;;;;;;;;;12.20;99.90;;;;;;5075794;28;19905;-68
2022/07/02 05:20:09;;;;;;;;;;;12.20;99.90;;;;;;5074542;28;19916;-68
2022/07/02 05:22:35;;;;;;;;;;;12.30;99.90;;;;;;5076024;28;20384;-68
2022/07/02 05:25:00;;;;;;;;;;;12.30;99.90;;;;;;5074140;28;20369;-68
2022/07/02 05:27:26;;;;;;;;;;;12.40;99.90;;;;;;5074800;28;20455;-68
2022/07/02 05:29:52;;;;;;;;;;;12.50;99.90;;;;;;5064882;28;19951;-68
2022/07/02 05:32:17;;;;;;;;;;;12.50;99.90;;;;;;5055315;28;19905;-68
2022/07/02 05:34:43;;;;;;;;;;;12.50;99.90;;;;;;5068940;28;19904;-67
2022/07/02 05:37:08;;;;;;;;;;;12.60;99.90;;;;;;5070554;28;19909;-67
2022/07/02 05:39:34;;;;;;;;;;;12.70;99.90;;;;;;5071042;28;19905;-68
2022/07/02 05:41:59;;;;;;;;;;;12.80;99.90;;;;;;5066259;28;19911;-68
2022/07/02 05:44:25;;;;;;;;;;;12.90;99.90;;;;;;5062767;28;19991;-68
2022/07/02 05:46:51;;;;;;;;;;;12.90;99.90;;;;;;5068064;28;19905;-67
2022/07/02 05:49:16;;;;;;;;;;;12.90;99.90;;;;;;5072767;28;19912;-68
2022/07/02 05:51:42;;;;;;;;;;;12.90;99.90;;;;;;5067462;28;19908;-67
2022/07/02 05:54:07;;;;;;;;;;;12.90;99.90;;;;;;5071289;28;19904;-67
2022/07/02 05:56:33;;;;;;;;;;;12.90;99.90;;;;;;5073736;28;20018;-68
2022/07/02 05:58:59;;;;;;;;;;;13.00;99.90;;;;;;5074372;28;19959;-68
2022/07/02 06:01:25;;;;;;;;;;;13.00;99.90;;;;;;5073144;28;19916;-68
2022/07/02 06:03:50;;;;;;;;;;;13.10;99.90;;;;;;5073300;28;19905;-68
2022/07/02 06:09:00;;;;;;;;;;;13.20;99.90;;;;;;5074081;28;19924;-68
2022/07/02 06:11:25;;;;;;;;;;;13.30;99.90;;;;;;5072856;28;20360;-68
2022/07/02 06:13:51;;;;;;;;;;;13.40;99.90;;;;;;5074493;28;19904;-67
2022/07/02 06:16:16;;;;;;;;;;;13.50;99.90;;;;;;5073154;28;20375;-68
2022/07/02 06:18:42;;;;;;;;;;;13.50;99.90;;;;;;5072737;28;19911;-68
2022/07/02 06:21:07;;;;;;;;;;;13.60;99.90;;;;;;5073133;28;19995;-68
2022/07/02 06:23:33;;;;;;;;;;;13.60;99.90;;;;;;5073196;28;19904;-68
2022/07/02 06:25:58;;;;;;;;;;;13.70;99.90;;;;;;5073748;28;19908;-68
2022/07/02 06:28:24;;;;;;;;;;;13.80;99.90;;;;;;5074346;28;20356;-68
2022/07/02 06:30:50;;;;;;;;;;;13.90;99.90;;;;;;5074279;28;19915;-68
2022/07/02 06:33:15;;;;;;;;;;;14.00;99.90;;;;;;5074922;28;20362;-68
2022/07/02 06:35:42;;;;;;;;;;;14.20;99.90;;;;;;5074339;28;20249;-67
2022/07/02 06:38:08;;;;;;;;;;;14.40;99.90;;;;;;5074381;28;19904;-68
2022/07/02 06:40:34;;;;;;;;;;;14.50;99.90;;;;;;5074301;28;19954;-68
2022/07/02 06:42:59;;;;;;;;;;;14.50;99.90;;;;;;5074828;28;19911;-68
2022/07/02 06:45:25;;;;;;;;;;;14.70;99.90;;;;;;5074531;28;20022;-68
2022/07/02 06:47:50;;;;;;;;;;;14.80;99.90;;;;;;5074395;28;19904;-68
2022/07/02 06:50:18;;;;;;;;;;;14.90;99.90;;;;;;5074092;28;20369;-68
2022/07/02 06:52:45;;;;;;;;;;;15.00;99.90;;;;;;5074108;28;19935;-68
2022/07/02 06:55:11;;;;;;;;;;;15.00;99.90;;;;;;5074075;28;19912;-68
2022/07/02 06:57:36;;;;;;;;;;;15.10;99.90;;;;;;5073979;28;19904;-68
2022/07/02 07:00:02;;;;;;;;;;;15.10;99.90;;;;;;5073678;28;19954;-68
2022/07/02 07:02:28;;;;;;;;;;;15.20;99.90;;;;;;5074225;28;20356;-68
2022/07/02 07:04:54;;;;;;;;;;;15.30;99.90;;;;;;5073917;28;20002;-68
2022/07/02 07:07:25;;;;;;;;;;;15.40;99.90;;;;;;5073963;28;20344;-68
2022/07/02 07:09:50;;;;;;;;;;;15.60;99.90;;;;;;5074134;28;19904;-68
2022/07/02 07:12:16;;;;;;;;;;;15.80;99.90;;;;;;5073846;28;20004;-68
2022/07/02 07:14:41;;;;;;;;;;;15.80;99.90;;;;;;5074168;28;19905;-68
2022/07/02 07:17:07;;;;;;;;;;;15.80;99.90;;;;;;5073742;28;19964;-68
2022/07/02 07:19:32;;;;;;;;;;;15.90;99.90;;;;;;5074083;28;19936;-68
2022/07/02 07:21:58;;;;;;;;;;;15.90;99.90;;;;;;5073781;28;20399;-68
2022/07/02 07:24:24;;;;;;;;;;;16.00;99.90;;;;;;5073713;28;19904;-68
2022/07/02 07:26:49;;;;;;;;;;;16.10;99.90;;;;;;5073900;28;19911;-68
2022/07/02 07:29:15;;;;;;;;;;;16.20;99.90;;;;;;5073672;28;19951;-68
2022/07/02 07:31:41;;;;;;;;;;;16.40;99.90;;;;;;5072293;28;19915;-68
2022/07/02 07:34:07;;;;;;;;;;;16.50;99.90;;;;;;5073618;28;19935;-68
2022/07/02 07:36:34;;;;;;;;;;;16.60;99.90;;;;;;5073920;28;19927;-68
2022/07/02 07:38:59;;;;;;;;;;;16.70;99.90;;;;;;5073552;28;19998;-68
2022/07/02 07:41:25;;;;;;;;;;;16.90;99.90;;;;;;5073942;28;19954;-70
2022/07/02 07:43:53;;;;;;;;;;;17.00;99.90;;;;;;5073547;28;19904;-70
2022/07/02 07:46:19;;;;;;;;;;;17.00;99.90;;;;;;5072492;28;20348;-70
2022/07/02 07:48:45;;;;;;;;;;;17.00;99.90;;;;;;5072692;28;20288;-71
2022/07/02 07:51:11;;;;;;;;;;;17.10;99.90;;;;;;5072740;28;19915;-69
2022/07/02 07:53:37;;;;;;;;;;;17.20;99.90;;;;;;5073443;28;19904;-68
2022/07/02 07:56:02;;;;;;;;;;;17.30;99.90;;;;;;5073703;28;19911;-69
2022/07/02 07:58:29;;;;;;;;;;;17.40;99.90;;;;;;5073401;28;19904;-69
2022/07/02 08:00:55;;;;;;;;;;;17.50;99.90;;;;;;5073382;28;19904;-69
2022/07/02 08:03:21;;;;;;;;;;;17.60;99.90;;;;;;5073667;28;19911;-70
2022/07/02 08:05:47;;;;;;;;;;;17.60;99.90;;;;;;5073381;28;20393;-67
2022/07/02 08:08:12;;;;;;;;;;;17.80;99.90;;;;;;5073101;28;19999;-67
2022/07/02 08:10:38;;;;;;;;;;;18.00;99.90;;;;;;5074973;28;19948;-67
2022/07/02 08:13:04;;;;;;;;;;;18.20;99.90;;;;;;5077356;28;19904;-69
2022/07/02 08:15:29;;;;;;;;;;;18.40;99.90;;;;;;5077004;28;19904;-70
2022/07/02 08:17:55;;;;;;;;;;;18.40;99.90;;;;;;5077052;28;19909;-70
2022/07/02 08:20:20;;;;;;;;;;;18.50;99.90;;;;;;5075682;28;19905;-69
2022/07/02 08:22:46;;;;;;;;;;;18.50;99.90;;;;;;5076366;28;19905;-70
2022/07/02 08:25:15;;;;;;;;;;;18.60;99.90;;;;;;5075760;28;19904;-69
2022/07/02 08:27:41;;;;;;;;;;;18.70;99.90;;;;;;5076269;28;19908;-69
2022/07/02 08:30:07;;;;;;;;;;;18.70;99.90;;;;;;5068094;28;20606;-69
2022/07/02 08:32:32;;;;;;;;;;;18.80;99.90;;;;;;5075322;28;19904;-69
2022/07/02 08:34:58;;;;;;;;;;;19.00;99.90;;;;;;5075284;28;20455;-69
2022/07/02 08:37:24;;;;;;;;;;;19.10;99.90;;;;;;5074782;28;19904;-69
2022/07/02 08:39:50;;;;;;;;;;;19.20;99.90;;;;;;5075013;28;19911;-69
2022/07/02 08:42:23;;;;;;;;;;;19.30;99.90;;;;;;5076490;28;19908;-69
2022/07/02 08:44:49;;;;;;;;;;;19.30;99.90;;;;;;5076168;28;19904;-68
2022/07/02 08:47:15;;;;;;;;;;;19.50;99.90;;;;;;5076878;28;20291;-68
2022/07/02 08:49:42;;;;;;;;;;;19.60;99.90;;;;;;5076417;28;19905;-69
2022/07/02 08:52:08;;;;;;;;;;;19.60;99.90;;;;;;5076347;28;19970;-69
2022/07/02 08:54:34;;;;;;;;;;;19.80;99.90;;;;;;5076381;28;19904;-69
2022/07/02 08:57:02;;;;;;;;;;;19.90;99.90;;;;;;5076229;28;19927;-70
2022/07/02 08:59:29;;;;;;;;;;;20.10;99.90;;;;;;5076471;28;19912;-69
2022/07/02 09:01:55;;;;;;;;;;;20.20;99.90;;;;;;5055692;28;19955;-69
2022/07/02 09:04:22;;;;;;;;;;;20.20;99.90;;;;;;5053676;28;20395;-70
2022/07/02 09:06:49;;;;;;;;;;;20.40;99.90;;;;;;5056215;28;19947;-69
2022/07/02 09:09:15;;;;;;;;;;;20.40;99.90;;;;;;5055952;28;19916;-69
2022/07/02 09:11:41;;;;;;;;;;;20.50;99.80;;;;;;5056191;28;20007;-69
2022/07/02 09:14:06;;;;;;;;;;;20.60;98.10;;;;;;5055932;28;19955;-69
2022/07/02 09:16:33;;;;;;;;;;;20.70;98.00;;;;;;5056173;28;19912;-69
2022/07/02 09:18:58;;;;;;;;;;;20.80;98.80;;;;;;5055749;28;19912;-69
2022/07/02 09:21:24;;;;;;;;;;;20.90;98.60;;;;;;5055304;28;19904;-69
2022/07/02 09:23:52;;;;;;;;;;;20.90;97.70;;;;;;5054647;28;20272;-68
2022/07/02 09:26:18;;;;;;;;;;;21.00;97.10;;;;;;5057112;28;20419;-69
2022/07/02 09:28:54;;;;;;;;;;;21.20;96.90;;;;;;5056190;28;19909;-69
2022/07/02 09:31:19;;;;;;;;;;;21.20;95.70;;;;;;5055527;28;20377;-70
2022/07/02 09:33:45;;;;;;;;;;;21.30;94.70;;;;;;5055842;28;19905;-69
2022/07/02 09:36:11;;;;;;;;;;;21.30;94.90;;;;;;5056105;28;19905;-69
2022/07/02 09:38:44;;;;;;;;;;;21.30;95.60;;;;;;5055441;28;19939;-69
2022/07/02 09:41:14;;;;;;;;;;;21.40;95.80;;;;;;5055458;28;20003;-70
2022/07/02 09:43:40;;;;;;;;;;;21.40;96.50;;;;;;5055339;28;19909;-69
2022/07/02 09:46:19;;;;;;;;;;;21.40;96.30;;;;;;5055367;28;19911;-69
2022/07/02 09:48:46;;;;;;;;;;;21.50;96.00;;;;;;5055302;28;20007;-70
2022/07/02 09:51:11;;;;;;;;;;;21.60;95.70;;;;;;5055173;28;20424;-69
2022/07/02 09:53:50;;;;;;;;;;;21.70;94.80;;;;;;5055191;28;19913;-70
2022/07/02 09:56:16;;;;;;;;;;;21.90;96.10;;;;;;5053894;28;19948;-70
2022/07/02 09:58:42;;;;;;;;;;;22.00;95.00;;;;;;5055627;28;19905;-70
2022/07/02 10:01:07;;;;;;;;;;;22.10;94.30;;;;;;5055554;28;19948;-69
2022/07/02 10:03:44;;;;;;;;;;;22.10;93.70;;;;;;5055565;28;19995;-69
2022/07/02 10:06:10;;;;;;;;;;;22.20;93.90;;;;;;5054930;28;19999;-69
2022/07/02 10:08:36;;;;;;;;;;;22.30;95.00;;;;;;5054725;28;19955;-70
2022/07/02 10:11:02;;;;;;;;;;;22.40;93.20;;;;;;5054787;28;19909;-69
2022/07/02 10:13:30;;;;;;;;;;;22.50;92.20;;;;;;5054766;28;19927;-69
2022/07/02 10:15:59;;;;;;;;;;;22.50;92.70;;;;;;5054772;28;19905;-69
2022/07/02 10:18:24;;;;;;;;;;;22.60;91.80;;;;;;5054930;28;20272;-69
2022/07/02 10:20:51;;;;;;;;;;;22.70;91.70;;;;;;5055200;28;19991;-70
2022/07/02 10:23:18;;;;;;;;;;;22.80;92.20;;;;;;5053671;28;19905;-70
2022/07/02 10:25:44;;;;;;;;;;;22.80;90.90;;;;;;5053948;28;19912;-69
2022/07/02 10:28:09;;;;;;;;;;;22.90;91.90;;;;;;5068484;28;19908;-70
2022/07/02 10:30:35;;;;;;;;;;;22.90;92.60;;;;;;5073789;28;20003;-70
2022/07/02 10:33:23;;;;;;;;;;;23.00;92.40;;;;;;5073535;28;19998;-70
2022/07/02 10:35:50;;;;;;;;;;;23.10;92.80;;;;;;5067845;28;20435;-70
2022/07/02 10:38:25;;;;;;;;;;;23.30;92.40;;;;;;5073752;28;19912;-69
2022/07/02 10:40:51;;;;;;;;;;;23.40;92.80;;;;;;5073459;28;19904;-70
2022/07/02 10:43:17;;;;;;;;;;;23.60;92.50;;;;;;5073571;28;19970;-70
2022/07/02 10:45:43;;;;;;;;;;;23.80;92.60;;;;;;5069326;28;19915;-70
2022/07/02 10:48:10;;;;;;;;;;;23.90;91.80;;;;;;5070953;28;19999;-70
2022/07/02 10:50:35;;;;;;;;;;;24.00;91.90;;;;;;5073481;28;20017;-70
2022/07/02 10:53:11;;;;;;;;;;;24.00;90.70;;;;;;5073504;28;19915;-70
2022/07/02 10:55:37;;;;;;;;;;;24.00;90.50;;;;;;5073523;28;19911;-70
2022/07/02 10:58:04;;;;;;;;;;;24.00;90.10;;;;;;5071788;28;19905;-70
2022/07/02 11:00:39;;;;;;;;;;;24.00;90.00;;;;;;5073531;28;19911;-70
2022/07/02 11:03:11;;;;;;;;;;;24.00;90.00;;;;;;5074236;28;20406;-70
2022/07/02 11:05:57;;;;;;;;;;;24.00;89.40;;;;;;5074218;28;19991;-71
2022/07/02 11:08:41;;;;;;;;;;;24.10;90.60;;;;;;5066561;28;20025;-70
2022/07/02 11:11:07;;;;;;;;;;;24.20;89.10;;;;;;5074103;28;20489;-70
2022/07/02 11:13:41;;;;;;;;;;;24.40;90.10;;;;;;5073880;28;19988;-70
2022/07/02 11:16:40;;;;;;;;;;;24.40;91.40;;;;;;5073870;28;20391;-71
2022/07/02 11:19:12;;;;;;;;;;;24.30;88.90;;;;;;5061478;28;19914;-71
2022/07/02 11:21:39;;;;;;;;;;;24.50;88.30;;;;;;5073848;28;19950;-72
2022/07/02 11:24:05;;;;;;;;;;;24.50;89.90;;;;;;5073699;28;20352;-71
2022/07/02 11:26:31;;;;;;;;;;;24.60;89.90;;;;;;5074035;28;20288;-70
2022/07/02 11:29:01;;;;;;;;;;;24.70;87.00;;;;;;5073911;28;19910;-70
2022/07/02 11:31:26;;;;;;;;;;;24.90;88.70;;;;;;5073625;28;20395;-70
2022/07/02 11:33:53;;;;;;;;;;;24.80;87.10;;;;;;5073615;28;19947;-71
2022/07/02 11:36:19;;;;;;;;;;;24.80;86.50;;;;;;5074311;28;20268;-71
2022/07/02 11:38:45;;;;;;;;;;;24.90;86.70;;;;;;5073479;28;19904;-71
2022/07/02 11:41:16;;;;;;;;;;;24.80;87.00;;;;;;5054003;28;19912;-71
2022/07/02 11:43:44;;;;;;;;;;;24.90;87.70;;;;;;5052448;28;20352;-71
2022/07/02 11:46:13;;;;;;;;;;;25.00;87.00;;;;;;5056486;28;19908;-70
2022/07/02 11:48:39;;;;;;;;;;;25.00;87.90;;;;;;5057432;28;20008;-70
2022/07/02 11:51:05;;;;;;;;;;;25.10;85.60;;;;;;5057710;28;19915;-71
2022/07/02 11:53:30;;;;;;;;;;;25.20;87.10;;;;;;5057748;28;19905;-70
2022/07/02 11:56:13;;;;;;;;;;;25.30;87.40;;;;;;5057652;28;20277;-71
2022/07/02 11:58:42;;;;;;;;;;;25.50;85.40;;;;;;5057487;28;20274;-70
2022/07/02 12:01:18;;;;;;;;;;;25.50;83.30;;;;;;5063018;28;19904;-70
2022/07/02 12:03:44;;;;;;;;;;;25.60;85.90;;;;;;5076778;28;20379;-71
2022/07/02 12:06:10;;;;;;;;;;;25.60;83.60;;;;;;5076625;28;19991;-70
2022/07/02 12:08:36;;;;;;;;;;;25.70;83.30;;;;;;5075152;28;19991;-70
2022/07/02 12:11:09;;;;;;;;;;;25.70;84.70;;;;;;5076484;28;20045;-70
2022/07/02 12:13:35;;;;;;;;;;;25.70;84.90;;;;;;5076587;28;19905;-71
2022/07/02 12:16:00;;;;;;;;;;;25.70;85.60;;;;;;5076199;28;19904;-71
2022/07/02 12:18:26;;;;;;;;;;;25.80;83.70;;;;;;5076489;28;20360;-70
2022/07/02 12:20:52;;;;;;;;;;;26.00;83.60;;;;;;5076757;28;19910;-70
2022/07/02 12:23:17;;;;;;;;;;;26.10;83.80;;;;;;5076448;28;19904;-70
2022/07/02 12:25:44;;;;;;;;;;;26.10;84.30;;;;;;5076384;28;19995;-70
2022/07/02 12:30:54;;;;;;;;;;;26.20;84.30;;;;;;5072962;28;19923;-70
2022/07/02 12:33:32;;;;;;;;;;;26.20;85.70;;;;;;5056978;28;19905;-70
2022/07/02 12:35:59;;;;;;;;;;;26.40;85.80;;;;;;5056898;28;19905;-70
2022/07/02 12:38:25;;;;;;;;;;;26.60;87.10;;;;;;5056833;28;20349;-70
2022/07/02 12:41:00;;;;;;;;;;;26.70;83.50;;;;;;5056851;28;19905;-71
2022/07/02 12:43:26;;;;;;;;;;;26.80;81.30;;;;;;5056828;28;19905;-71
2022/07/02 12:45:51;;;;;;;;;;;26.70;82.20;;;;;;5056651;28;19926;-68
2022/07/02 12:48:19;;;;;;;;;;;26.80;83.50;;;;;;5056664;28;19951;-71
2022/07/02 12:50:46;;;;;;;;;;;26.70;81.70;;;;;;5056525;28;19955;-70
2022/07/02 12:53:16;;;;;;;;;;;26.80;81.60;;;;;;5056688;28;20376;-71
2022/07/02 12:55:43;;;;;;;;;;;26.90;83.90;;;;;;5056521;28;19908;-71
2022/07/02 12:58:10;;;;;;;;;;;27.00;82.30;;;;;;5055489;28;20269;-71
2022/07/02 13:00:36;;;;;;;;;;;27.00;80.80;;;;;;5056505;28;19929;-71
2022/07/02 13:03:03;;;;;;;;;;;27.00;80.40;;;;;;5073422;28;19904;-71
2022/07/02 13:05:29;;;;;;;;;;;27.20;84.70;;;;;;5075450;28;19910;-71
2022/07/02 13:07:55;;;;;;;;;;;27.30;79.80;;;;;;5075380;28;19966;-70
2022/07/02 13:10:21;;;;;;;;;;;27.50;81.90;;;;;;5075405;28;19970;-71
2022/07/02 13:12:47;;;;;;;;;;;27.60;79.80;;;;;;5064033;28;19912;-70
2022/07/02 13:15:12;;;;;;;;;;;27.40;79.20;;;;;;5054579;28;19905;-71
2022/07/02 13:17:38;;;;;;;;;;;27.30;82.60;;;;;;5055249;28;19905;-70
2022/07/02 13:20:04;;;;;;;;;;;27.30;80.90;;;;;;5055289;28;19959;-70
2022/07/02 13:22:29;;;;;;;;;;;27.30;79.90;;;;;;5055171;28;19909;-71
2022/07/02 13:24:55;;;;;;;;;;;27.30;81.10;;;;;;5056354;28;19904;-71
2022/07/02 13:27:21;;;;;;;;;;;27.40;81.70;;;;;;5055690;28;20312;-71
2022/07/02 13:29:47;;;;;;;;;;;27.50;81.60;;;;;;5055919;28;20345;-74
2022/07/02 13:32:12;;;;;;;;;;;27.70;85.20;;;;;;5055587;28;19909;-71
2022/07/02 13:34:38;;;;;;;;;;;27.80;79.40;;;;;;5055868;28;19904;-71
2022/07/02 13:37:03;;;;;;;;;;;27.90;79.90;;;;;;5055737;28;19928;-71
2022/07/02 13:39:30;;;;;;;;;;;27.90;77.80;;;;;;5054613;28;19932;-71
2022/07/02 13:41:59;;;;;;;;;;;27.80;77.30;;;;;;5074764;28;19904;-70
2022/07/02 13:44:28;;;;;;;;;;;27.70;77.60;;;;;;5074889;28;19958;-71
2022/07/02 13:46:54;;;;;;;;;;;27.70;78.90;;;;;;5074682;28;19908;-70
2022/07/02 13:49:20;;;;;;;;;;;27.70;79.40;;;;;;5074675;28;20324;-70
2022/07/02 13:51:46;;;;;;;;;;;27.90;79.90;;;;;;5074515;28;19908;-70
2022/07/02 13:54:11;;;;;;;;;;;28.00;77.40;;;;;;5073010;28;20276;-70
2022/07/02 13:56:37;;;;;;;;;;;28.20;76.50;;;;;;5074493;28;19957;-71
2022/07/02 13:59:05;;;;;;;;;;;28.30;76.10;;;;;;5073063;28;19904;-71
2022/07/02 14:01:31;;;;;;;;;;;28.40;75.80;;;;;;5074376;28;19999;-71
2022/07/02 14:03:57;;;;;;;;;;;28.50;74.30;;;;;;5074370;28;19948;-71
2022/07/02 14:06:23;;;;;;;;;;;28.40;76.20;;;;;;5073377;28;19998;-70
2022/07/02 14:08:48;;;;;;;;;;;28.20;74.60;;;;;;5072682;28;19912;-70
2022/07/02 14:11:14;;;;;;;;;;;28.10;75.70;;;;;;5072715;28;20356;-71
2022/07/02 14:13:41;;;;;;;;;;;28.10;75.20;;;;;;5073009;28;19921;-71
2022/07/02 14:16:06;;;;;;;;;;;28.00;76.30;;;;;;5073486;28;19904;-71
2022/07/02 14:18:32;;;;;;;;;;;28.00;74.50;;;;;;5074631;28;19905;-71
2022/07/02 14:20:58;;;;;;;;;;;28.00;76.60;;;;;;5074944;28;20245;-72